Time;durP1;ratioP1;P1;durP2;ratioP2;P2;SDS_P1;SDS_P2;PMS_P1;PMS_P2;Temp;Humidity;BMP_temperature;BMP_pressure;BME280_temperature;BME280_humidity;BME280_pressure;Samples;Min_cycle;Max_cycle;Signal;HPM_P1;HPM_P2
2021/10/19 00:01:23;;;;;;;11.88;6.57;;;;;;;18.10;76.41;101818.59;5073186;28;20044;-65
2021/10/19 00:03:50;;;;;;;14.30;6.25;;;;;;;18.06;76.64;101810.56;5074359;28;20040;-65
2021/10/19 00:06:18;;;;;;;11.50;5.88;;;;;;;18.04;76.80;101809.69;5073651;28;20404;-65
2021/10/19 00:08:45;;;;;;;14.43;6.57;;;;;;;18.05;76.74;101804.31;5074339;28;20037;-65
2021/10/19 00:11:12;;;;;;;11.88;6.38;;;;;;;18.03;76.74;101802.56;5074054;28;20036;-65
2021/10/19 00:13:41;;;;;;;15.52;7.20;;;;;;;18.01;76.68;101805.22;5073902;28;20506;-65
2021/10/19 00:16:10;;;;;;;13.80;6.47;;;;;;;18.00;76.76;101799.84;5073388;28;20048;-65
2021/10/19 00:18:38;;;;;;;17.30;7.03;;;;;;;17.99;76.92;101790.06;5054781;28;20060;-65
2021/10/19 00:21:06;;;;;;;11.60;7.25;;;;;;;17.96;77.00;101788.28;5053907;28;20411;-65
2021/10/19 00:23:33;;;;;;;15.75;6.93;;;;;;;17.92;77.22;101781.13;5066637;28;20036;-66
2021/10/19 00:26:01;;;;;;;14.65;7.25;;;;;;;17.89;77.34;101784.72;5074475;28;20365;-65
2021/10/19 00:28:28;;;;;;;13.18;6.75;;;;;;;17.89;77.45;101787.38;5073936;28;20055;-65
2021/10/19 00:30:56;;;;;;;14.30;7.53;;;;;;;17.87;77.40;101785.59;5073676;28;20478;-65
2021/10/19 00:33:23;;;;;;;14.75;7.45;;;;;;;17.87;77.53;101783.81;5073583;28;20044;-65
2021/10/19 00:35:52;;;;;;;12.45;7.15;;;;;;;17.85;77.56;101774.03;5073474;28;20040;-65
2021/10/19 00:38:19;;;;;;;15.65;6.68;;;;;;;17.84;77.47;101788.28;5073316;28;20503;-65
2021/10/19 00:40:46;;;;;;;13.13;7.15;;;;;;;17.84;77.41;101785.59;5073433;28;20037;-65
2021/10/19 00:43:14;;;;;;;12.48;6.38;;;;;;;17.83;77.34;101783.81;5073220;28;20395;-65
2021/10/19 00:45:41;;;;;;;13.00;7.35;;;;;;;17.81;77.41;101794.47;5073871;28;20048;-65
2021/10/19 00:48:11;;;;;;;12.13;6.80;;;;;;;17.82;77.45;101792.72;5073383;28;20048;-66
2021/10/19 00:50:38;;;;;;;13.20;6.93;;;;;;;17.83;77.56;101794.50;5073802;28;20114;-66
2021/10/19 00:53:08;;;;;;;13.13;6.20;;;;;;;17.82;77.44;101792.72;5073063;28;20051;-65
2021/10/19 00:55:35;;;;;;;14.13;6.55;;;;;;;17.80;77.44;101800.72;5073852;28;20049;-65
2021/10/19 00:58:06;;;;;;;15.50;7.10;;;;;;;17.79;77.52;101790.00;5072988;28;20504;-65
2021/10/19 01:00:34;;;;;;;13.73;6.50;;;;;;;17.80;77.70;101786.47;5073693;28;20045;-65
2021/10/19 01:03:02;;;;;;;11.75;5.97;;;;;;;17.80;77.59;101783.78;5072205;28;20115;-65
2021/10/19 01:05:29;;;;;;;15.43;6.90;;;;;;;17.81;77.60;101778.44;5073691;28;20519;-65
2021/10/19 01:07:57;;;;;;;14.70;6.18;;;;;;;17.83;77.49;101789.16;5073280;28;20049;-65
2021/10/19 01:10:25;;;;;;;17.45;7.28;;;;;;;17.82;77.39;101782.91;5072849;28;20491;-65
2021/10/19 01:12:53;;;;;;;12.50;6.18;;;;;;;17.82;77.46;101785.59;5072329;28;20040;-65
2021/10/19 01:15:21;;;;;;;15.82;6.50;;;;;;;17.84;77.51;101790.94;5073707;28;20052;-65
2021/10/19 01:17:50;;;;;;;13.25;7.20;;;;;;;17.90;77.28;101793.63;5072492;28;20032;-66
2021/10/19 01:20:27;;;;;;;14.80;5.78;;;;;;;17.91;77.30;101795.41;5073636;28;20054;-65
2021/10/19 01:22:55;;;;;;;14.52;6.00;;;;;;;17.92;77.40;101798.06;5072391;28;20039;-66
2021/10/19 01:25:24;;;;;;;13.75;6.05;;;;;;;17.96;77.52;101801.66;5073206;28;20041;-66
2021/10/19 01:27:54;;;;;;;13.43;5.88;;;;;;;17.97;77.25;101798.09;5072675;28;20651;-65
2021/10/19 01:30:23;;;;;;;18.50;6.40;;;;;;;17.99;77.36;101795.41;5072691;28;20037;-65
2021/10/19 01:32:51;;;;;;;15.00;6.88;;;;;;;17.99;77.64;101788.28;5072216;28;20036;-65
2021/10/19 01:35:19;;;;;;;14.70;6.90;;;;;;;17.97;77.82;101795.41;5073279;28;20160;-66
2021/10/19 01:37:47;;;;;;;17.20;6.63;;;;;;;17.99;77.97;101787.38;5071556;28;20040;-65
2021/10/19 01:40:17;;;;;;;13.55;5.88;;;;;;;17.99;77.87;101787.38;5032959;28;20433;-65
2021/10/19 01:42:45;;;;;;;15.10;6.30;;;;;;;17.99;77.85;101793.63;5032504;28;20061;-65
2021/10/19 01:45:14;;;;;;;11.98;6.53;;;;;;;18.01;77.88;101791.84;5032432;28;20082;-65
2021/10/19 01:47:41;;;;;;;14.73;6.35;;;;;;;18.01;77.64;101783.84;5032325;28;20500;-65
2021/10/19 01:50:10;;;;;;;11.60;6.18;;;;;;;18.02;77.55;101788.28;5032409;28;20405;-65
2021/10/19 01:52:38;;;;;;;11.82;5.63;;;;;;;18.02;77.62;101782.94;5031761;28;20034;-65
2021/10/19 01:55:09;;;;;;;12.38;5.82;;;;;;;18.06;77.66;101778.50;5032539;28;20045;-65
2021/10/19 01:57:37;;;;;;;14.73;6.25;;;;;;;18.06;77.75;101790.06;5032314;28;20504;-65
2021/10/19 02:00:06;;;;;;;12.32;6.22;;;;;;;18.07;77.34;101781.16;5032568;28;20053;-66
2021/10/19 02:02:34;;;;;;;19.33;6.22;;;;;;;18.09;77.36;101782.06;5031668;28;20128;-65
2021/10/19 02:05:01;;;;;;;11.90;6.32;;;;;;;18.12;77.17;101779.38;5032384;28;20049;-65
2021/10/19 02:07:28;;;;;;;12.10;5.75;;;;;;;18.13;77.18;101788.31;5031356;28;20404;-65
2021/10/19 02:09:56;;;;;;;13.60;6.03;;;;;;;18.11;77.25;101782.97;5031274;28;20384;-65
2021/10/19 02:12:25;;;;;;;12.65;6.10;;;;;;;18.13;77.14;101791.88;5032191;28;20452;-65
2021/10/19 02:14:52;;;;;;;11.95;6.25;;;;;;;18.14;76.88;101787.41;5032006;28;20366;-65
2021/10/19 02:17:20;;;;;;;14.27;6.72;;;;;;;18.10;76.50;101782.97;5031298;28;20038;-65
2021/10/19 02:19:47;;;;;;;10.70;6.30;;;;;;;18.04;76.36;101786.53;5031596;28;20041;-65
2021/10/19 02:22:14;;;;;;;11.80;5.88;;;;;;;18.01;76.31;101783.84;5031411;28;20041;-66
2021/10/19 02:24:42;;;;;;;14.40;5.80;;;;;;;17.98;76.29;101790.97;5031357;28;20045;-65
2021/10/19 02:27:09;;;;;;;13.60;6.00;;;;;;;17.99;76.16;101785.59;5032129;28;20045;-65
2021/10/19 02:29:38;;;;;;;11.43;5.93;;;;;;;17.95;75.92;101789.16;5030677;28;20038;-65
2021/10/19 02:32:06;;;;;;;14.80;6.00;;;;;;;17.95;75.65;101791.84;5032216;28;20512;-65
2021/10/19 02:34:34;;;;;;;14.48;5.65;;;;;;;17.94;75.62;101795.41;5031553;28;20480;-65
2021/10/19 02:37:01;;;;;;;11.38;6.07;;;;;;;17.91;75.49;101790.97;5012760;28;20477;-65
2021/10/19 02:39:29;;;;;;;8.95;4.90;;;;;;;17.89;75.27;101798.06;5055029;28;20424;-65
2021/10/19 02:41:56;;;;;;;9.57;4.68;;;;;;;17.88;75.27;101795.38;5071166;28;20051;-65
2021/10/19 02:44:24;;;;;;;10.27;5.30;;;;;;;17.84;74.99;101793.63;5070835;28;20041;-65
2021/10/19 02:46:53;;;;;;;13.65;5.28;;;;;;;17.85;75.15;101800.75;5071602;28;20052;-65
2021/10/19 02:49:20;;;;;;;16.05;5.60;;;;;;;17.84;75.01;101799.84;5070687;28;20044;-65
2021/10/19 02:51:47;;;;;;;11.93;5.30;;;;;;;17.82;74.83;101796.28;5071492;28;20033;-65
2021/10/19 02:54:15;;;;;;;10.77;5.18;;;;;;;17.80;75.07;101802.47;5070719;28;20048;-65
2021/10/19 02:56:42;;;;;;;10.50;5.10;;;;;;;17.81;75.02;101798.94;5071089;28;20499;-65
2021/10/19 02:59:09;;;;;;;11.48;5.80;;;;;;;17.85;74.96;101806.09;5070594;28;20123;-65
2021/10/19 03:01:37;;;;;;;14.00;5.53;;;;;;;17.83;75.31;101800.72;5067311;28;20045;-65
2021/10/19 03:04:06;;;;;;;10.43;5.20;;;;;;;17.86;75.38;101808.75;5071226;28;20040;-65
2021/10/19 03:06:33;;;;;;;10.27;5.47;;;;;;;17.91;75.55;101796.31;5070748;28;20047;-65
2021/10/19 03:09:00;;;;;;;12.20;5.97;;;;;;;17.95;75.43;101807.88;5070648;28;20102;-65
2021/10/19 03:11:28;;;;;;;13.25;5.75;;;;;;;17.96;75.66;101808.78;5070615;28;20123;-64
2021/10/19 03:13:55;;;;;;;11.02;5.25;;;;;;;17.97;75.38;101807.88;5070417;28;20058;-65
2021/10/19 03:16:22;;;;;;;13.25;6.00;;;;;;;17.97;75.29;101805.22;5070484;28;20056;-65
2021/10/19 03:18:50;;;;;;;11.02;5.82;;;;;;;17.98;75.32;101810.56;5070644;28;20036;-64
2021/10/19 03:21:19;;;;;;;13.00;5.90;;;;;;;18.02;75.25;101817.69;5070671;28;20041;-65
2021/10/19 03:23:46;;;;;;;15.75;5.30;;;;;;;17.96;75.33;101811.44;5070205;28;20033;-65
2021/10/19 03:26:16;;;;;;;11.05;5.93;;;;;;;17.95;75.36;101809.66;5070959;28;20052;-66
2021/10/19 03:28:44;;;;;;;14.13;5.97;;;;;;;17.94;75.29;101808.75;5070810;28;20476;-65
2021/10/19 03:31:12;;;;;;;15.20;6.18;;;;;;;17.92;75.07;101813.19;5070809;28;20045;-65
2021/10/19 03:33:40;;;;;;;13.98;6.72;;;;;;;17.95;74.93;101799.84;5070564;28;20041;-65
2021/10/19 03:36:08;;;;;;;12.35;6.82;;;;;;;17.96;74.89;101804.31;5070367;28;20382;-65
2021/10/19 03:38:38;;;;;;;10.23;6.20;;;;;;;17.98;75.21;101797.22;5070236;28;20045;-65
2021/10/19 03:41:06;;;;;;;14.15;6.70;;;;;;;17.97;75.15;101799.88;5050437;28;20045;-65
2021/10/19 03:43:34;;;;;;;13.93;7.07;;;;;;;17.96;75.04;101798.09;5067092;28;20045;-65
2021/10/19 03:46:01;;;;;;;15.85;7.00;;;;;;;17.98;75.13;101801.66;5070224;28;20496;-65
2021/10/19 03:48:29;;;;;;;14.57;6.97;;;;;;;17.99;75.21;101803.41;5070047;28;20044;-65
2021/10/19 03:50:56;;;;;;;11.52;6.82;;;;;;;17.97;75.20;101808.78;5069845;28;20392;-65
2021/10/19 03:53:24;;;;;;;15.18;7.30;;;;;;;17.95;75.17;101812.31;5070297;28;20044;-65
2021/10/19 03:55:55;;;;;;;12.63;6.70;;;;;;;17.89;74.95;101808.75;5070939;28;20052;-65
2021/10/19 03:58:23;;;;;;;11.63;6.72;;;;;;;17.88;74.97;101817.66;5070695;28;20041;-65
2021/10/19 04:00:50;;;;;;;14.50;6.65;;;;;;;17.88;75.07;101822.09;5069612;28;20052;-65
2021/10/19 04:03:18;;;;;;;14.68;6.35;;;;;;;17.91;74.93;101830.16;5070877;28;20044;-65
2021/10/19 04:05:45;;;;;;;12.40;6.22;;;;;;;17.89;74.86;101813.22;5070136;28;20037;-65
2021/10/19 04:08:13;;;;;;;13.30;6.40;;;;;;;17.86;75.05;101826.53;5070543;28;20503;-65
2021/10/19 04:10:40;;;;;;;13.73;6.53;;;;;;;17.84;74.82;101823.00;5070094;28;20041;-65
2021/10/19 04:13:09;;;;;;;12.68;5.93;;;;;;;17.84;74.78;101821.22;5070502;28;20499;-65
2021/10/19 04:15:36;;;;;;;11.07;6.13;;;;;;;17.88;74.57;101830.13;5070050;28;20503;-65
2021/10/19 04:18:04;;;;;;;11.18;6.00;;;;;;;17.89;74.29;101831.91;5070285;28;20053;-65
2021/10/19 04:20:31;;;;;;;14.05;5.63;;;;;;;17.88;74.29;101839.03;5069584;28;20040;-66
2021/10/19 04:22:59;;;;;;;10.68;6.38;;;;;;;17.92;74.33;101840.81;5070287;28;20059;-65
2021/10/19 04:25:26;;;;;;;11.63;5.47;;;;;;;17.97;74.09;101848.88;5070234;28;20056;-65
2021/10/19 04:27:53;;;;;;;11.95;5.65;;;;;;;18.00;74.24;101838.16;5069933;28;20518;-65
2021/10/19 04:30:22;;;;;;;12.48;5.55;;;;;;;18.00;74.27;101847.97;5069823;28;20053;-65
2021/10/19 04:32:50;;;;;;;12.35;5.43;;;;;;;18.02;74.47;101835.50;5067247;28;20487;-65
2021/10/19 04:35:17;;;;;;;13.20;5.85;;;;;;;18.01;74.57;101853.31;5070369;28;20087;-65
2021/10/19 04:37:44;;;;;;;14.13;6.05;;;;;;;18.02;74.67;101846.19;5070472;28;20044;-65
2021/10/19 04:40:13;;;;;;;12.98;6.35;;;;;;;18.01;74.76;101861.34;5068835;28;20040;-65
2021/10/19 04:42:41;;;;;;;11.82;5.97;;;;;;;18.03;74.46;101851.53;5063196;28;20511;-65
2021/10/19 04:45:10;;;;;;;13.82;7.55;;;;;;;18.06;74.20;101850.66;5069555;28;20403;-65
2021/10/19 04:47:39;;;;;;;14.15;6.82;;;;;;;18.09;74.22;101853.34;5070611;28;20047;-65
2021/10/19 04:50:07;;;;;;;14.48;7.88;;;;;;;18.09;74.11;101845.31;5072852;28;20045;-65
2021/10/19 04:52:34;;;;;;;16.88;8.10;;;;;;;18.08;74.19;101840.84;5073816;28;20055;-66
2021/10/19 04:55:01;;;;;;;13.00;7.70;;;;;;;18.08;74.05;101840.84;5072673;28;20040;-65
2021/10/19 04:57:29;;;;;;;17.35;8.35;;;;;;;18.07;73.76;101850.66;5073406;28;20051;-65
2021/10/19 04:59:56;;;;;;;16.02;8.70;;;;;;;18.10;73.67;101849.78;5066666;28;20052;-65
2021/10/19 05:02:24;;;;;;;19.45;8.32;;;;;;;18.10;73.25;101850.69;5071622;28;20056;-65
2021/10/19 05:04:52;;;;;;;13.70;8.02;;;;;;;18.10;73.38;101849.78;5072987;28;20064;-65
2021/10/19 05:07:20;;;;;;;14.68;8.80;;;;;;;18.09;73.38;101854.22;5072827;28;20055;-65
2021/10/19 05:09:47;;;;;;;18.02;8.43;;;;;;;18.10;73.31;101861.38;5071732;28;20041;-65
2021/10/19 05:12:15;;;;;;;15.32;8.05;;;;;;;18.10;73.43;101868.50;5071984;28;20052;-65
2021/10/19 05:14:43;;;;;;;21.20;8.75;;;;;;;18.13;73.35;101872.03;5071314;28;20511;-65
2021/10/19 05:17:10;;;;;;;14.88;8.73;;;;;;;18.15;73.69;101872.06;5056649;28;20037;-65
2021/10/19 05:19:38;;;;;;;18.42;9.48;;;;;;;18.20;73.68;101862.25;5073494;28;20040;-65
2021/10/19 05:22:06;;;;;;;17.40;9.43;;;;;;;18.26;73.68;101872.97;5072392;28;20040;-65
2021/10/19 05:24:34;;;;;;;17.90;9.10;;;;;;;18.31;73.63;101880.09;5072947;28;20047;-65
2021/10/19 05:27:01;;;;;;;19.25;9.13;;;;;;;18.42;73.75;101876.56;5072530;28;20481;-66
2021/10/19 05:29:29;;;;;;;16.25;9.38;;;;;;;18.47;73.66;101875.69;5072267;28;20507;-65
2021/10/19 05:31:57;;;;;;;17.90;9.00;;;;;;;18.49;73.39;101873.00;5069449;28;20063;-65
2021/10/19 05:34:25;;;;;;;22.83;10.50;;;;;;;18.54;73.16;101877.47;5064708;28;20040;-65
2021/10/19 05:36:53;;;;;;;14.00;7.95;;;;;;;18.57;72.88;101881.97;5069174;28;20055;-65
2021/10/19 05:39:22;;;;;;;14.18;8.25;;;;;;;18.57;72.52;101890.91;5071743;28;20056;-65
2021/10/19 05:41:50;;;;;;;18.50;8.57;;;;;;;18.57;72.44;101895.34;5072605;28;20040;-65
2021/10/19 05:44:17;;;;;;;17.00;9.07;;;;;;;18.57;72.35;101890.00;5071544;28;20044;-65
2021/10/19 05:46:44;;;;;;;22.35;10.23;;;;;;;18.60;72.39;101896.22;5071968;28;20036;-65
2021/10/19 05:49:12;;;;;;;20.38;8.80;;;;;;;18.64;72.34;101899.81;5071739;28;20404;-65
2021/10/19 05:51:39;;;;;;;26.40;10.18;;;;;;;18.65;72.24;101897.13;5071855;28;20048;-65
2021/10/19 05:54:06;;;;;;;24.33;8.73;;;;;;;18.75;72.09;101895.34;5072783;28;20480;-65
2021/10/19 05:56:35;;;;;;;23.70;8.93;;;;;;;18.98;72.21;101904.25;5072276;28;20052;-65
2021/10/19 05:59:02;;;;;;;21.15;8.27;;;;;;;19.06;71.92;101910.50;5068289;28;20048;-65
2021/10/19 06:01:30;;;;;;;19.10;8.20;;;;;;;19.03;71.66;101906.94;5071395;28;20044;-66
2021/10/19 06:03:57;;;;;;;16.70;7.68;;;;;;;18.98;71.62;101909.59;5071613;28;20080;-66
2021/10/19 06:06:25;;;;;;;19.65;9.80;;;;;;;18.98;71.73;101919.41;5069825;28;20047;-65
2021/10/19 06:08:52;;;;;;;18.40;7.63;;;;;;;18.98;71.74;101916.75;5071420;28;20518;-66
2021/10/19 06:11:20;;;;;;;15.90;7.53;;;;;;;19.01;71.88;101925.69;5070632;28;20048;-66
2021/10/19 06:13:49;;;;;;;17.65;8.65;;;;;;;19.16;72.24;101929.25;5071854;28;20041;-65
2021/10/19 06:16:16;;;;;;;16.63;8.25;;;;;;;19.35;71.89;101933.69;5070545;28;20049;-66
2021/10/19 06:18:44;;;;;;;14.65;7.10;;;;;;;19.73;71.73;101929.16;5071641;28;20040;-65
2021/10/19 06:21:11;;;;;;;12.13;7.20;;;;;;;19.89;71.14;101930.84;5070615;28;20053;-66
2021/10/19 06:23:39;;;;;;;16.55;7.30;;;;;;;20.18;70.37;101940.56;5071760;28;20045;-65
2021/10/19 06:26:06;;;;;;;11.55;6.35;;;;;;;20.53;70.01;101944.00;5072090;28;20040;-66
2021/10/19 06:28:34;;;;;;;10.30;5.93;;;;;;;20.73;69.35;101953.69;5072388;28;20403;-66
2021/10/19 06:31:03;;;;;;;11.05;6.28;;;;;;;21.01;68.98;101952.56;5071093;28;20053;-66
2021/10/19 06:33:30;;;;;;;11.05;6.68;;;;;;;21.30;67.83;101945.19;5071361;28;20377;-66
2021/10/19 06:35:58;;;;;;;9.18;5.35;;;;;;;21.35;66.25;101950.50;5070951;28;20404;-65
2021/10/19 06:38:25;;;;;;;9.63;4.97;;;;;;;21.63;66.05;101951.13;5072008;28;20052;-66
2021/10/19 06:40:52;;;;;;;11.05;5.43;;;;;;;21.85;64.94;101949.97;5071466;28;20056;-66
2021/10/19 06:43:19;;;;;;;12.27;5.38;;;;;;;22.06;64.59;101943.44;5071735;28;20123;-66
2021/10/19 06:45:47;;;;;;;12.30;5.15;;;;;;;22.35;64.08;101948.44;5071598;28;20041;-66
2021/10/19 06:48:16;;;;;;;11.50;5.43;;;;;;;22.50;62.89;101954.53;5071062;28;20052;-66
2021/10/19 06:50:44;;;;;;;7.72;4.68;;;;;;;22.58;62.43;101957.97;5071951;28;20500;-66
2021/10/19 06:53:11;;;;;;;10.50;4.78;;;;;;;22.67;61.09;101954.25;5071158;28;20121;-66
2021/10/19 06:55:38;;;;;;;12.90;5.13;;;;;;;22.83;60.37;101954.97;5071444;28;20036;-66
2021/10/19 06:58:06;;;;;;;11.45;5.05;;;;;;;23.05;60.12;101959.94;5071791;28;20400;-66
2021/10/19 07:00:33;;;;;;;8.88;4.78;;;;;;;23.22;59.53;101962.38;5071141;28;20078;-66
2021/10/19 07:03:00;;;;;;;11.45;5.03;;;;;;;23.31;58.32;101970.28;5070464;28;20388;-66
2021/10/19 07:05:30;;;;;;;10.93;5.38;;;;;;;23.40;57.70;101966.53;5071757;28;20504;-66
2021/10/19 07:07:57;;;;;;;10.80;5.13;;;;;;;23.45;56.66;101967.34;5071145;28;20058;-66
2021/10/19 07:10:25;;;;;;;11.80;5.00;;;;;;;23.55;56.47;101977.09;5070947;28;20048;-66
2021/10/19 07:12:52;;;;;;;12.27;4.95;;;;;;;23.71;56.42;101970.47;5070550;28;20036;-66
2021/10/19 07:15:20;;;;;;;12.63;4.95;;;;;;;23.92;56.19;101970.97;5071357;28;20044;-66
2021/10/19 07:17:47;;;;;;;11.07;5.00;;;;;;;23.95;55.27;101977.22;5071070;28;20033;-66
2021/10/19 07:20:15;;;;;;;10.43;4.90;;;;;;;24.10;55.24;101979.56;5071322;28;20041;-66
2021/10/19 07:22:45;;;;;;;16.75;6.15;;;;;;;24.20;55.06;101969.50;5068538;28;20044;-66
2021/10/19 07:25:13;;;;;;;9.77;5.40;;;;;;;24.04;54.35;101978.81;5071444;28;20515;-66
2021/10/19 07:27:40;;;;;;;32.97;7.20;;;;;;;24.07;54.26;101982.34;5070982;28;20048;-66
2021/10/19 07:30:09;;;;;;;10.43;4.55;;;;;;;24.32;54.08;101981.84;5070811;28;20499;-66
2021/10/19 07:32:36;;;;;;;14.05;5.55;;;;;;;24.22;53.26;101986.53;5071230;28;20412;-66
2021/10/19 07:35:03;;;;;;;12.63;5.32;;;;;;;23.97;52.99;101974.44;5051048;28;20065;-66
2021/10/19 07:37:37;;;;;;;9.50;5.03;;;;;;;23.42;53.24;101991.66;5061891;28;20045;-67
2021/10/19 07:40:08;;;;;;;12.55;4.95;;;;;;;22.94;54.30;102002.34;5062423;28;20045;-67
2021/10/19 07:42:37;;;;;;;9.25;4.70;;;;;;;22.92;55.47;102001.47;5069445;28;20487;-66
2021/10/19 07:45:07;;;;;;;9.63;5.03;;;;;;;23.28;55.62;102000.00;5069378;28;20044;-67
2021/10/19 07:47:34;;;;;;;10.75;4.72;;;;;;;23.45;55.07;101999.69;5070088;28;20048;-67
2021/10/19 07:50:01;;;;;;;9.23;5.00;;;;;;;23.50;54.95;102000.53;5069427;28;20048;-67
2021/10/19 07:52:29;;;;;;;10.25;4.60;;;;;;;23.67;54.69;101994.84;5069722;28;20495;-66
2021/10/19 07:54:56;;;;;;;9.00;4.88;;;;;;;23.58;54.37;102014.75;5070517;28;20503;-66
2021/10/19 07:57:25;;;;;;;8.73;4.82;;;;;;;23.38;54.45;102015.09;5070302;28;20053;-66
2021/10/19 07:59:52;;;;;;;10.95;4.55;;;;;;;23.23;55.05;102014.47;5070606;28;20040;-67
2021/10/19 08:02:20;;;;;;;7.97;3.90;;;;;;;23.48;54.80;102007.78;5064726;28;20044;-68
2021/10/19 08:04:47;;;;;;;7.10;3.50;;;;;;;23.81;54.14;102011.66;5028852;28;20186;-66
2021/10/19 08:07:14;;;;;;;9.05;4.15;;;;;;;24.13;53.85;102006.50;5069090;28;20094;-66
2021/10/19 08:09:41;;;;;;;11.20;4.10;;;;;;;24.42;53.57;102010.41;5068970;28;20365;-67
2021/10/19 08:12:09;;;;;;;10.05;4.40;;;;;;;24.56;52.77;102009.19;5069431;28;20048;-67
2021/10/19 08:14:38;;;;;;;10.25;4.18;;;;;;;24.67;52.84;102005.38;5070485;28;20483;-67
2021/10/19 08:17:05;;;;;;;9.18;4.32;;;;;;;24.87;52.79;102004.00;5070023;28;20051;-67
2021/10/19 08:19:33;;;;;;;9.15;3.67;;;;;;;25.23;52.01;102013.03;5069316;28;20049;-67
2021/10/19 08:22:00;;;;;;;6.20;3.70;;;;;;;25.41;51.03;102006.25;5072780;28;20041;-67
2021/10/19 08:24:28;;;;;;;11.13;4.13;;;;;;;25.51;50.90;102012.34;5073164;28;20045;-67
2021/10/19 08:26:55;;;;;;;8.52;3.90;;;;;;;25.62;50.10;102002.16;5074057;28;20041;-67
2021/10/19 08:29:22;;;;;;;8.90;3.30;;;;;;;25.57;49.38;102010.38;5068488;28;20389;-67
2021/10/19 08:31:51;;;;;;;6.50;3.30;;;;;;;25.60;49.06;102017.56;5074350;28;20033;-66
2021/10/19 08:34:18;;;;;;;6.68;3.47;;;;;;;25.68;48.24;102016.41;5073533;28;20043;-67
2021/10/19 08:36:46;;;;;;;6.60;3.58;;;;;;;25.90;48.32;102021.22;5073741;28;20052;-66
2021/10/19 08:39:13;;;;;;;7.60;3.65;;;;;;;26.04;48.72;102010.91;5072806;28;20056;-66
2021/10/19 08:41:40;;;;;;;6.43;2.97;;;;;;;25.99;48.40;102018.28;5074458;28;20107;-67
2021/10/19 08:44:08;;;;;;;9.13;3.08;;;;;;;25.84;47.51;102016.88;5073400;28;20400;-66
2021/10/19 08:46:36;;;;;;;12.10;3.88;;;;;;;25.88;47.81;102012.25;5074165;28;20117;-67
2021/10/19 08:49:05;;;;;;;9.57;3.55;;;;;;;26.02;47.73;102007.34;5072957;28;20501;-67
2021/10/19 08:51:33;;;;;;;7.82;3.58;;;;;;;25.83;47.88;102015.09;5073768;28;20484;-67
2021/10/19 08:54:01;;;;;;;7.00;2.92;;;;;;;25.83;47.56;102020.50;5072725;28;20041;-67
2021/10/19 08:56:29;;;;;;;7.97;3.47;;;;;;;25.92;47.10;102016.66;5073561;28;20499;-67
2021/10/19 08:59:00;;;;;;;10.20;3.30;;;;;;;25.96;46.89;102021.06;5073462;28;21702;-67
2021/10/19 09:01:38;;;;;;;5.95;3.20;;;;;;;26.10;47.81;102008.91;5073205;28;20442;-67
2021/10/19 09:04:12;;;;;;;8.13;3.95;;;;;;;26.25;47.35;102013.03;5073166;28;20040;-67
2021/10/19 09:06:41;;;;;;;7.32;3.08;;;;;;;26.26;46.74;102011.19;5069232;28;20064;-67
2021/10/19 09:09:10;;;;;;;10.60;3.40;;;;;;;26.32;46.65;102013.75;5072300;28;20055;-66
2021/10/19 09:11:39;;;;;;;7.10;3.08;;;;;;;26.44;46.48;102006.13;5072656;28;20043;-66
2021/10/19 09:14:06;;;;;;;7.60;3.47;;;;;;;26.43;46.49;101998.03;5073518;28;20040;-67
2021/10/19 09:16:38;;;;;;;13.02;3.40;;;;;;;26.25;46.43;102007.63;5072631;28;20535;-66
2021/10/19 09:19:06;;;;;;;10.18;3.50;;;;;;;25.97;46.51;102006.59;5073120;28;20534;-67
2021/10/19 09:21:35;;;;;;;8.20;3.60;;;;;;;25.68;47.09;102019.09;5072265;28;20426;-66
2021/10/19 09:24:20;;;;;;;8.02;3.40;;;;;;;25.59;47.30;102013.06;5072991;28;20052;-66
2021/10/19 09:26:52;;;;;;;9.52;3.85;;;;;;;25.71;47.19;102021.72;5065165;28;20036;-66
2021/10/19 09:29:19;;;;;;;9.65;3.60;;;;;;;25.58;46.51;102008.56;5071970;28;20049;-66
2021/10/19 09:31:47;;;;;;;9.23;3.53;;;;;;;25.47;46.28;102016.06;5072852;28;20037;-67
2021/10/19 09:34:14;;;;;;;6.68;2.97;;;;;;;25.56;46.81;102010.38;5072687;28;20041;-66
2021/10/19 09:36:43;;;;;;;8.25;3.13;;;;;;;25.61;46.48;102016.59;5071774;28;20044;-66
2021/10/19 09:52:06;;;;;;;9.60;3.47;;;;;;;26.12;44.17;102007.03;5067174;27;20419;-66
2021/10/19 09:54:34;;;;;;;6.65;3.50;;;;;;;25.80;44.48;102009.75;5031943;28;23778;-66
2021/10/19 10:10:27;;;;;;;8.23;4.05;;;;;;;26.00;45.30;101995.66;5017531;27;20525;-65
2021/10/19 10:13:02;;;;;;;13.63;4.80;;;;;;;25.70;45.21;102000.13;5004734;28;20053;-65
2021/10/19 10:15:33;;;;;;;9.85;3.85;;;;;;;25.59;45.73;101997.72;5003970;28;20045;-66
2021/10/19 10:18:03;;;;;;;10.05;3.97;;;;;;;25.68;46.21;101997.44;5003848;28;20049;-65
2021/10/19 10:20:36;;;;;;;10.25;4.03;;;;;;;25.51;46.25;101991.59;5024851;28;20683;-66
2021/10/19 10:23:16;;;;;;;9.38;3.95;;;;;;;25.43;46.86;101990.91;5024193;28;20049;-65
2021/10/19 10:25:47;;;;;;;11.30;5.00;;;;;;;25.48;47.25;101988.06;5022382;28;20103;-66
2021/10/19 10:28:18;;;;;;;9.73;4.57;;;;;;;25.67;47.61;101983.97;5023749;28;20049;-65
2021/10/19 10:30:49;;;;;;;10.07;5.00;;;;;;;25.65;47.00;101981.31;5023258;28;20052;-66
2021/10/19 10:33:16;;;;;;;7.85;4.20;;;;;;;25.57;47.12;101987.81;5024136;28;20518;-65
2021/10/19 10:35:45;;;;;;;11.65;5.40;;;;;;;25.63;47.19;101977.75;5022390;28;21507;-66
2021/10/19 10:38:14;;;;;;;9.85;4.65;;;;;;;25.53;47.08;101984.34;5023439;28;20391;-66
2021/10/19 10:40:43;;;;;;;11.00;5.25;;;;;;;25.47;47.47;101981.75;5022594;28;20049;-65
2021/10/19 10:43:23;;;;;;;11.93;4.88;;;;;;;25.62;47.86;101972.38;5023768;28;20049;-65
2021/10/19 10:46:02;;;;;;;14.43;5.32;;;;;;;25.69;48.26;101976.69;5023531;28;20045;-66
2021/10/19 10:48:29;;;;;;;14.85;5.57;;;;;;;25.65;48.13;101973.22;5023357;28;20065;-66
2021/10/19 10:50:58;;;;;;;12.65;5.55;;;;;;;25.40;47.57;101964.81;5023414;28;20053;-65
2021/10/19 10:53:34;;;;;;;11.25;4.93;;;;;;;25.17;48.12;101958.25;5023498;28;20041;-65
2021/10/19 10:56:01;;;;;;;11.02;4.93;;;;;;;25.22;48.67;101962.59;5022056;28;20049;-66
2021/10/19 10:58:34;;;;;;;9.45;4.38;;;;;;;25.27;47.75;101960.66;5022394;28;20041;-66
2021/10/19 11:01:13;;;;;;;12.80;5.32;;;;;;;25.25;47.90;101961.63;5023743;28;20049;-65
2021/10/19 11:03:41;;;;;;;8.85;5.00;;;;;;;25.15;48.03;101960.09;5022471;28;20136;-65
2021/10/19 11:06:09;;;;;;;12.05;5.68;;;;;;;25.25;48.51;101959.81;5022195;28;20520;-65
2021/10/19 11:08:37;;;;;;;9.63;4.60;;;;;;;25.37;48.04;101953.19;5021941;28;20050;-65
2021/10/19 11:11:08;;;;;;;11.77;4.53;;;;;;;25.46;47.53;101957.47;5009588;28;20064;-66
2021/10/19 11:13:50;;;;;;;16.63;5.70;;;;;;;25.35;47.65;101955.94;5005736;28;20514;-66
2021/10/19 11:16:19;;;;;;;12.57;5.28;;;;;;;25.37;47.93;101956.78;5008715;28;20052;-66
2021/10/19 11:18:52;;;;;;;13.18;5.45;;;;;;;25.31;47.57;101962.38;5008855;28;20046;-66
2021/10/19 11:21:20;;;;;;;9.75;5.35;;;;;;;25.29;47.75;101952.50;5009723;28;20052;-65
2021/10/19 11:23:48;;;;;;;12.23;5.40;;;;;;;25.34;47.99;101962.28;5009649;28;20624;-66
2021/10/19 11:26:16;;;;;;;12.20;5.13;;;;;;;25.35;48.71;101963.16;5009943;28;20127;-65
2021/10/19 11:28:45;;;;;;;12.10;5.20;;;;;;;25.28;48.43;101957.03;5008993;28;20046;-66
2021/10/19 11:31:15;;;;;;;12.02;5.68;;;;;;;25.19;48.66;101961.81;5009202;28;20516;-65
2021/10/19 11:33:45;;;;;;;14.30;5.78;;;;;;;25.08;48.88;101962.06;5009504;28;20051;-65
2021/10/19 11:36:15;;;;;;;13.43;5.57;;;;;;;25.05;49.10;101964.84;5010049;28;20073;-64
2021/10/19 11:38:44;;;;;;;16.23;6.05;;;;;;;25.02;49.11;101954.09;5008156;28;20053;-65
2021/10/19 11:41:14;;;;;;;13.38;5.10;;;;;;;25.00;48.87;101964.09;4991789;28;20049;-65
2021/10/19 11:43:43;;;;;;;9.18;4.90;;;;;;;24.89;48.62;101961.63;5008606;28;20057;-64
2021/10/19 11:46:16;;;;;;;10.45;5.00;;;;;;;24.90;49.24;101966.09;5007170;28;20142;-64
2021/10/19 11:48:45;;;;;;;14.52;4.82;;;;;;;24.89;48.59;101963.41;5008176;28;20529;-65
2021/10/19 11:51:15;;;;;;;9.27;5.18;;;;;;;24.83;48.85;101959.03;5008367;28;20053;-64